createdAt,value
2022-08-06T00:00:06.637Z,97451.13
2022-08-06T00:02:43.665Z,97457.34
2022-08-06T00:05:32.020Z,97457.63
2022-08-06T00:08:21.112Z,97458.34
2022-08-06T00:11:08.880Z,97464.84
2022-08-06T00:13:55.822Z,97485.91
2022-08-06T00:16:44.609Z,97496.50
2022-08-06T00:19:48.433Z,97495.22
2022-08-06T00:22:44.262Z,97518.41
2022-08-06T00:25:35.899Z,97524.59
2022-08-06T00:28:32.195Z,97534.44
2022-08-06T00:31:17.688Z,97539.59
2022-08-06T00:34:05.727Z,97539.13
2022-08-06T00:36:53.221Z,97536.66
2022-08-06T00:39:39.218Z,97540.34
2022-08-06T00:42:24.820Z,97548.81
2022-08-06T00:45:10.681Z,97551.56
2022-08-06T00:48:30.984Z,97561.38
2022-08-06T00:51:18.594Z,97571.16
2022-08-06T00:54:06.557Z,97571.41
2022-08-06T00:56:51.890Z,97560.19
2022-08-06T01:03:41.687Z,97564.25
2022-08-06T01:06:52.983Z,97569.94
2022-08-06T01:09:57.858Z,97579.34
2022-08-06T01:12:43.763Z,97578.34
2022-08-06T01:15:48.476Z,97583.75
2022-08-06T01:18:52.778Z,97583.59
2022-08-06T01:22:29.954Z,97565.91
2022-08-06T01:34:36.636Z,97571.81
2022-08-06T01:37:38.862Z,97568.31
2022-08-06T01:45:20.707Z,97589.75
2022-08-06T01:48:28.797Z,97582.53
2022-08-06T01:52:13.497Z,97584.13
2022-08-06T01:54:26.875Z,97575.28
2022-08-06T01:57:20.983Z,97577.16
2022-08-06T02:00:29.341Z,97581.13
2022-08-06T02:03:39.006Z,97580.56
2022-08-06T02:06:40.908Z,97584.84
2022-08-06T02:09:33.778Z,97592.31
2022-08-06T02:12:26.932Z,97590.13
2022-08-06T02:15:58.928Z,97588.22
2022-08-06T02:19:48.172Z,97571.34
2022-08-06T02:23:34.711Z,97569.72
2022-08-06T02:26:25.153Z,97572.91
2022-08-06T02:29:15.079Z,97591.63
2022-08-06T02:32:01.809Z,97600.66
2022-08-06T02:34:47.906Z,97590.97
2022-08-06T02:38:07.610Z,97606.94
2022-08-06T02:41:11.281Z,97613.88
2022-08-06T02:44:37.007Z,97621.28
2022-08-06T02:47:52.733Z,97629.81
2022-08-06T02:50:40.192Z,97637.78
2022-08-06T02:54:02.811Z,97647.88
2022-08-06T02:56:48.605Z,97645.94
2022-08-06T02:59:40.121Z,97651.59
2022-08-06T03:02:30.280Z,97641.44
2022-08-06T03:05:20.435Z,97660.03
2022-08-06T03:08:30.251Z,97660.28
2022-08-06T03:11:18.176Z,97665.06
2022-08-06T03:14:13.423Z,97664.28
2022-08-06T03:17:13.517Z,97664.25
2022-08-06T03:20:02.859Z,97671.69
2022-08-06T03:22:52.238Z,97669.28
2022-08-06T03:25:41.928Z,97675.72
2022-08-06T03:28:29.332Z,97679.75
2022-08-06T03:31:15.895Z,97678.69
2022-08-06T03:34:03.708Z,97688.72
2022-08-06T03:36:50.599Z,97686.53
2022-08-06T03:39:39.533Z,97688.91
2022-08-06T03:42:32.848Z,97692.16
2022-08-06T03:45:35.577Z,97711.41
2022-08-06T03:48:32.741Z,97707.13
2022-08-06T03:51:50.891Z,97703.72
2022-08-06T03:54:33.456Z,97698.41
2022-08-06T03:57:29.457Z,97703.25
2022-08-06T04:00:29.302Z,97708.09
2022-08-06T04:03:16.781Z,97701.69
2022-08-06T04:06:03.370Z,97703.53
2022-08-06T04:08:50.635Z,97696.84
2022-08-06T04:12:37.327Z,97696.03
2022-08-06T04:14:47.416Z,97712.34
2022-08-06T04:17:34.455Z,97721.91
2022-08-06T04:20:41.789Z,97720.78
2022-08-06T04:23:38.302Z,97722.16
2022-08-06T04:26:25.570Z,97726.13
2022-08-06T04:29:16.708Z,97740.28
2022-08-06T04:32:19.035Z,97748.06
2022-08-06T04:36:05.102Z,97752.28
2022-08-06T04:38:18.295Z,97766.16
2022-08-06T04:41:16.146Z,97778.47
2022-08-06T04:44:02.586Z,97778.78
2022-08-06T04:46:49.501Z,97787.06
2022-08-06T04:49:58.178Z,97789.25
2022-08-06T04:52:48.598Z,97785.59
2022-08-06T04:55:35.836Z,97785.34
2022-08-06T04:58:26.551Z,97790.38
2022-08-06T05:02:14.144Z,97791.94
2022-08-06T05:05:00.460Z,97801.16
2022-08-06T05:08:23.786Z,97799.31
2022-08-06T05:11:18.120Z,97805.03
2022-08-06T05:14:25.560Z,97807.22
2022-08-06T05:17:15.669Z,97803.44
2022-08-06T05:20:26.095Z,97814.19
2022-08-06T05:24:10.314Z,97819.25
2022-08-06T05:26:56.547Z,97813.72
2022-08-06T05:34:04.624Z,97819.38
2022-08-06T05:36:50.291Z,97829.88
2022-08-06T05:39:57.726Z,97837.94
2022-08-06T05:43:16.664Z,97834.78
2022-08-06T05:46:10.484Z,97838.56
2022-08-06T05:49:54.791Z,97847.94
2022-08-06T05:52:18.563Z,97844.53
2022-08-06T05:55:11.634Z,97846.69
2022-08-06T05:58:00.466Z,97845.13
2022-08-06T06:00:49.038Z,97851.00
2022-08-06T06:04:33.547Z,97848.09
2022-08-06T06:08:09.990Z,97848.91
2022-08-06T06:10:26.864Z,97857.22
2022-08-06T06:13:24.676Z,97866.63
2022-08-06T06:16:22.389Z,97864.50
2022-08-06T06:19:24.971Z,97876.53
2022-08-06T06:22:27.850Z,97872.53
2022-08-06T06:25:22.754Z,97874.38
2022-08-06T06:28:29.026Z,97870.88
2022-08-06T06:32:06.916Z,97875.69
2022-08-06T06:35:33.960Z,97883.81
2022-08-06T06:47:42.984Z,97910.72
2022-08-06T06:50:36.294Z,97912.09
2022-08-06T06:53:24.046Z,97920.75
2022-08-06T06:56:59.885Z,97913.63
2022-08-06T07:01:26.866Z,97925.28
2022-08-06T07:04:32.203Z,97916.00
2022-08-06T07:07:26.270Z,97912.72
2022-08-06T07:10:15.120Z,97916.66
2022-08-06T07:13:15.813Z,97928.97
2022-08-06T07:16:03.508Z,97924.38
2022-08-06T07:18:53.342Z,97933.19
2022-08-06T07:21:51.912Z,97933.19
2022-08-06T07:24:45.457Z,97929.16
2022-08-06T07:27:42.932Z,97937.28
2022-08-06T07:30:37.191Z,97938.03
2022-08-06T07:33:26.465Z,97941.97
2022-08-06T07:36:16.745Z,97942.81
2022-08-06T07:39:05.974Z,97941.69
2022-08-06T07:42:10.828Z,97946.69
2022-08-06T07:45:02.873Z,97941.91
2022-08-06T07:47:56.015Z,97938.25
2022-08-06T07:50:45.845Z,97942.16
2022-08-06T07:53:52.582Z,97949.47
2022-08-06T07:57:00.458Z,97950.13
2022-08-06T07:59:52.266Z,97961.13
2022-08-06T08:02:41.849Z,97955.69
2022-08-06T08:05:59.987Z,97971.72
2022-08-06T08:08:47.293Z,97967.41
2022-08-06T08:11:38.267Z,97965.50
2022-08-06T08:14:40.442Z,97964.19
2022-08-06T08:17:35.126Z,97968.25
2022-08-06T08:20:21.308Z,97971.31
2022-08-06T08:23:25.287Z,97973.91
2022-08-06T08:26:15.752Z,97976.91
2022-08-06T08:29:07.322Z,97973.91
2022-08-06T08:32:05.327Z,97972.59
2022-08-06T08:35:02.524Z,97978.53
2022-08-06T08:37:49.403Z,97988.63
2022-08-06T08:40:37.540Z,97991.25
2022-08-06T08:43:58.586Z,97988.78
2022-08-06T08:46:38.014Z,97986.44
2022-08-06T08:49:46.880Z,97993.25
2022-08-06T08:52:34.757Z,97986.41
2022-08-06T08:57:07.409Z,97984.38
2022-08-06T08:58:46.785Z,97990.94
2022-08-06T09:01:53.756Z,97991.56
2022-08-06T09:04:42.415Z,97998.09
2022-08-06T09:07:35.924Z,97990.13
2022-08-06T09:10:22.980Z,97992.66
2022-08-06T09:13:22.565Z,97997.56
2022-08-06T09:16:19.127Z,97996.63
2022-08-06T09:19:10.769Z,97994.09
2022-08-06T09:22:00.861Z,97996.81
2022-08-06T09:24:46.743Z,98004.34
2022-08-06T09:27:47.528Z,97989.88
2022-08-06T09:30:34.599Z,97988.78
2022-08-06T09:34:28.531Z,97992.59
2022-08-06T09:36:30.620Z,97988.59
2022-08-06T09:39:23.135Z,97996.50
2022-08-06T09:42:09.381Z,97989.88
2022-08-06T09:45:16.495Z,97994.50
2022-08-06T09:48:17.008Z,97995.63
2022-08-06T09:51:03.916Z,97994.91
2022-08-06T09:54:22.134Z,97993.91
2022-08-06T09:57:05.915Z,97999.66
2022-08-06T09:59:52.661Z,97992.75
2022-08-06T10:02:39.482Z,97998.44
2022-08-06T10:05:25.784Z,97991.00
2022-08-06T10:08:22.584Z,97990.88
2022-08-06T10:11:09.099Z,97990.44
2022-08-06T10:13:55.127Z,97985.94
2022-08-06T10:16:40.822Z,97973.13
2022-08-06T10:19:26.218Z,97978.56
2022-08-06T10:22:22.393Z,97981.03
2022-08-06T10:25:13.933Z,97985.09
2022-08-06T10:28:01.604Z,97977.84
2022-08-06T10:30:47.284Z,97976.50
2022-08-06T10:33:46.731Z,97966.59
2022-08-06T10:36:53.106Z,97974.69
2022-08-06T10:40:08.217Z,97977.38
2022-08-06T10:42:53.662Z,97969.28
2022-08-06T10:45:49.698Z,97968.47
2022-08-06T10:49:01.984Z,97967.16
2022-08-06T10:51:55.807Z,97970.91
2022-08-06T10:54:45.020Z,97973.88
2022-08-06T10:57:39.624Z,97979.75
2022-08-06T11:00:27.063Z,97982.97
2022-08-06T11:03:13.757Z,97973.03
2022-08-06T11:06:28.086Z,97973.03
2022-08-06T11:09:59.557Z,97980.06
2022-08-06T11:13:18.606Z,97973.41
2022-08-06T11:16:05.014Z,97976.41
2022-08-06T11:19:09.434Z,97974.78
2022-08-06T11:22:02.172Z,97974.53
2022-08-06T11:24:55.517Z,97975.06
2022-08-06T11:27:52.511Z,97965.94
2022-08-06T11:30:52.752Z,97958.66
2022-08-06T11:33:38.054Z,97960.78
2022-08-06T11:36:28.739Z,97976.94
2022-08-06T11:39:17.479Z,97962.38
2022-08-06T11:42:04.347Z,97961.84
2022-08-06T11:46:19.208Z,97963.72
2022-08-06T11:48:27.733Z,97954.19
2022-08-06T11:52:04.344Z,97945.47
2022-08-06T11:54:52.297Z,97950.84
2022-08-06T11:57:48.157Z,97945.81
2022-08-06T12:01:03.569Z,97948.19
2022-08-06T12:04:07.506Z,97944.94
2022-08-06T12:07:29.556Z,97950.56
2022-08-06T12:10:29.058Z,97946.78
2022-08-06T12:13:53.420Z,97945.34
2022-08-06T12:16:53.014Z,97938.66
2022-08-06T12:19:44.522Z,97939.81
2022-08-06T12:22:50.214Z,97939.38
2022-08-06T12:25:39.871Z,97935.25
2022-08-06T12:28:25.920Z,97938.00
2022-08-06T12:31:35.503Z,97932.88
2022-08-06T12:34:27.531Z,97932.88
2022-08-06T12:37:13.403Z,97934.09
2022-08-06T12:40:23.471Z,97925.53
2022-08-06T12:43:15.354Z,97920.84
2022-08-06T12:46:18.530Z,97919.84
2022-08-06T12:49:05.824Z,97920.03
2022-08-06T12:51:54.537Z,97919.81
2022-08-06T12:54:40.770Z,97916.53
2022-08-06T12:57:57.472Z,97916.38
2022-08-06T13:00:38.356Z,97905.41
2022-08-06T13:03:31.049Z,97911.50
2022-08-06T13:06:31.468Z,97900.34
2022-08-06T13:09:31.475Z,97897.44
2022-08-06T13:12:44.977Z,97907.44
2022-08-06T13:15:42.140Z,97896.53
2022-08-06T13:18:47.580Z,97901.09
2022-08-06T13:21:56.846Z,97884.75
2022-08-06T13:25:03.529Z,97893.81
2022-08-06T13:27:55.824Z,97899.19
2022-08-06T13:30:48.128Z,97899.63
2022-08-06T13:33:49.079Z,97893.13
2022-08-06T13:36:43.311Z,97887.84
2022-08-06T13:39:35.716Z,97882.69
2022-08-06T13:42:22.500Z,97883.97
2022-08-06T13:45:56.928Z,97885.25
2022-08-06T13:48:32.463Z,97879.84
2022-08-06T13:51:22.335Z,97882.06
2022-08-06T13:54:16.006Z,97876.88
2022-08-06T13:57:04.656Z,97874.91
2022-08-06T13:59:53.461Z,97878.38
2022-08-06T14:02:41.399Z,97884.63
2022-08-06T14:05:26.806Z,97872.13
2022-08-06T14:08:13.045Z,97877.41
2022-08-06T14:10:59.072Z,97877.13
2022-08-06T14:13:45.158Z,97872.56
2022-08-06T14:16:30.664Z,97869.38
2022-08-06T14:20:16.239Z,97881.09
2022-08-06T14:22:26.007Z,97878.56
2022-08-06T14:25:11.920Z,97883.91
2022-08-06T14:28:00.373Z,97880.09
2022-08-06T14:30:46.746Z,97877.34
2022-08-06T14:33:47.518Z,97879.66
2022-08-06T14:36:37.611Z,97878.97
2022-08-06T14:39:59.875Z,97867.03
2022-08-06T14:42:48.465Z,97859.59
2022-08-06T14:45:39.248Z,97868.34
2022-08-06T14:48:31.212Z,97862.53
2022-08-06T14:51:23.152Z,97868.50
2022-08-06T14:54:11.532Z,97864.25
2022-08-06T14:57:14.741Z,97865.25
2022-08-06T15:00:06.257Z,97871.66
2022-08-06T15:02:52.519Z,97863.31
2022-08-06T15:05:41.847Z,97870.91
2022-08-06T15:08:49.007Z,97869.19
2022-08-06T15:11:59.938Z,97870.78
2022-08-06T15:14:44.059Z,97866.47
2022-08-06T15:18:03.697Z,97867.16
2022-08-06T15:20:42.334Z,97860.78
2022-08-06T15:23:30.908Z,97860.44
2022-08-06T15:26:41.894Z,97861.47
2022-08-06T15:29:34.884Z,97862.59
2022-08-06T15:32:20.813Z,97861.91
2022-08-06T15:35:09.201Z,97860.78
2022-08-06T15:37:59.764Z,97855.66
2022-08-06T15:40:49.222Z,97856.66
2022-08-06T15:43:37.546Z,97848.66
2022-08-06T15:46:30.183Z,97849.22
2022-08-06T15:49:20.944Z,97852.59
2022-08-06T15:52:12.255Z,97842.03
2022-08-06T15:54:57.974Z,97844.84
2022-08-06T15:58:04.179Z,97848.06
2022-08-06T16:01:03.725Z,97850.25
2022-08-06T16:03:57.677Z,97845.94
2022-08-06T16:06:44.013Z,97840.75
2022-08-06T16:10:01.008Z,97846.31
2022-08-06T16:12:40.567Z,97842.19
2022-08-06T16:15:29.899Z,97840.63
2022-08-06T16:18:31.186Z,97837.41
2022-08-06T16:21:17.995Z,97840.16
2022-08-06T16:24:05.469Z,97841.28
2022-08-06T16:26:57.385Z,97837.84
2022-08-06T16:29:47.639Z,97842.03
2022-08-06T16:32:34.911Z,97843.00
2022-08-06T16:35:22.145Z,97844.41
2022-08-06T16:38:12.266Z,97848.78
2022-08-06T16:41:03.445Z,97849.06
2022-08-06T16:43:50.572Z,97850.09
2022-08-06T16:46:38.637Z,97848.09
2022-08-06T16:49:43.074Z,97851.19
2022-08-06T16:52:43.959Z,97843.53
2022-08-06T16:55:42.295Z,97853.03
2022-08-06T16:58:35.075Z,97851.44
2022-08-06T17:02:15.501Z,97850.03
2022-08-06T17:04:32.550Z,97866.25
2022-08-06T17:07:18.291Z,97854.22
2022-08-06T17:10:25.501Z,97860.50
2022-08-06T17:13:12.235Z,97854.94
2022-08-06T17:16:17.655Z,97849.41
2022-08-06T17:19:06.719Z,97844.63
2022-08-06T17:22:02.393Z,97845.09
2022-08-06T17:24:48.279Z,97842.69
2022-08-06T17:27:44.060Z,97849.72
2022-08-06T17:30:40.697Z,97852.16
2022-08-06T17:33:26.987Z,97846.00
2022-08-06T17:36:29.854Z,97849.06
2022-08-06T17:39:20.002Z,97854.53
2022-08-06T17:45:18.351Z,97853.28
2022-08-06T17:48:05.474Z,97856.78
2022-08-06T17:50:51.061Z,97848.19
2022-08-06T17:53:52.152Z,97846.88
2022-08-06T17:56:40.116Z,97843.94
2022-08-06T17:59:29.442Z,97847.75
2022-08-06T18:02:15.444Z,97845.91
2022-08-06T18:05:02.731Z,97847.34
2022-08-06T18:08:12.158Z,97850.69
2022-08-06T18:10:55.423Z,97855.16
2022-08-06T18:13:52.900Z,97863.66
2022-08-06T18:16:40.750Z,97856.66
2022-08-06T18:19:34.153Z,97857.19
2022-08-06T18:22:25.403Z,97866.09
2022-08-06T18:25:15.131Z,97865.28
2022-08-06T18:28:01.808Z,97866.94
2022-08-06T18:30:50.146Z,97864.81
2022-08-06T18:33:36.501Z,97875.13
2022-08-06T18:36:30.141Z,97869.53
2022-08-06T18:39:23.227Z,97879.06
2022-08-06T18:42:26.605Z,97885.88
2022-08-06T18:45:14.485Z,97878.44
2022-08-06T18:48:01.081Z,97883.69
2022-08-06T18:50:46.798Z,97892.38
2022-08-06T18:54:00.977Z,97894.84
2022-08-06T18:56:39.071Z,97886.56
2022-08-06T18:59:29.985Z,97892.25
2022-08-06T19:02:16.287Z,97902.28
2022-08-06T19:05:10.407Z,97905.03
2022-08-06T19:07:58.508Z,97908.56
2022-08-06T19:10:47.706Z,97915.59
2022-08-06T19:14:17.182Z,97911.59
2022-08-06T19:16:40.757Z,97912.38
2022-08-06T19:20:00.822Z,97912.16
2022-08-06T19:22:42.422Z,97925.06
2022-08-06T19:25:51.958Z,97928.56
2022-08-06T19:28:49.651Z,97939.59
2022-08-06T19:31:42.171Z,97933.41
2022-08-06T19:34:29.324Z,97938.22
2022-08-06T19:37:33.085Z,97940.09
2022-08-06T19:40:40.005Z,97939.28
2022-08-06T19:44:24.666Z,97934.38
2022-08-06T19:46:35.387Z,97937.06
2022-08-06T19:49:20.976Z,97938.13
2022-08-06T19:52:09.671Z,97942.66
2022-08-06T19:54:57.839Z,97946.66
2022-08-06T19:57:43.331Z,97945.81
2022-08-06T20:00:51.400Z,97956.81
2022-08-06T20:03:39.271Z,97953.78
2022-08-06T20:06:40.463Z,97952.44
2022-08-06T20:09:58.807Z,97951.31
2022-08-06T20:12:40.877Z,97949.66
2022-08-06T20:15:28.841Z,97964.09
2022-08-06T20:18:15.192Z,97955.22
2022-08-06T20:21:02.730Z,97962.44
2022-08-06T20:23:48.366Z,97955.94
2022-08-06T20:26:43.117Z,97954.59
2022-08-06T20:30:05.626Z,97957.78
2022-08-06T20:32:53.873Z,97952.38
2022-08-06T20:35:39.867Z,97955.28
2022-08-06T20:38:43.581Z,97954.44
2022-08-06T20:42:03.940Z,97949.28
2022-08-06T20:44:37.035Z,97953.00
2022-08-06T20:47:45.183Z,97952.41
2022-08-06T20:50:32.650Z,97946.47
2022-08-06T20:53:17.825Z,97952.59
2022-08-06T20:56:10.789Z,97950.66
2022-08-06T20:58:56.831Z,97947.13
2022-08-06T21:01:42.775Z,97951.06
2022-08-06T21:05:14.626Z,97950.47
2022-08-06T21:07:38.149Z,97956.03
2022-08-06T21:10:26.671Z,97960.78
2022-08-06T21:13:12.297Z,97959.59
2022-08-06T21:16:29.024Z,97952.25
2022-08-06T21:19:19.728Z,97949.47
2022-08-06T21:22:08.122Z,97945.34
2022-08-06T21:24:54.447Z,97948.78
2022-08-06T21:27:49.012Z,97953.53
2022-08-06T21:30:35.484Z,97945.13
2022-08-06T21:33:22.616Z,97943.66
2022-08-06T21:36:16.629Z,97940.94
2022-08-06T21:39:10.805Z,97945.19
2022-08-06T21:42:05.775Z,97954.72
2022-08-06T21:44:54.212Z,97955.72
2022-08-06T21:47:46.994Z,97947.63
2022-08-06T21:50:33.006Z,97951.84
2022-08-06T21:53:52.532Z,97943.78
2022-08-06T21:56:37.301Z,97947.41
2022-08-06T21:59:30.741Z,97953.19
2022-08-06T22:02:32.044Z,97963.81
2022-08-06T22:06:22.813Z,97958.84
2022-08-06T22:08:27.406Z,97964.31
2022-08-06T22:12:38.797Z,97964.50
2022-08-06T22:14:28.635Z,97962.88
2022-08-06T22:17:59.540Z,97959.78
2022-08-06T22:20:28.921Z,97972.25
2022-08-06T22:23:15.923Z,97960.19
2022-08-06T22:26:02.872Z,97961.47
2022-08-06T22:28:50.534Z,97950.72
2022-08-06T22:31:55.993Z,97955.78
2022-08-06T22:34:44.420Z,97961.81
2022-08-06T22:38:16.983Z,97966.28
2022-08-06T22:40:48.911Z,97957.75
2022-08-06T22:43:51.768Z,97971.09
2022-08-06T22:46:42.159Z,97959.25
2022-08-06T22:49:28.239Z,97968.88
2022-08-06T22:52:17.501Z,97963.00
2022-08-06T22:55:05.280Z,97973.06
2022-08-06T22:58:47.600Z,97963.09
2022-08-06T23:00:58.101Z,97963.09
2022-08-06T23:03:44.549Z,97966.81
2022-08-06T23:06:36.007Z,97973.91
2022-08-06T23:09:23.133Z,97965.69
2022-08-06T23:12:12.701Z,97961.16
2022-08-06T23:14:59.939Z,97963.03
2022-08-06T23:17:56.318Z,97962.22
2022-08-06T23:20:47.035Z,97953.91
2022-08-06T23:23:46.911Z,97966.97
2022-08-06T23:26:35.901Z,97956.31
2022-08-06T23:29:22.708Z,97957.69
2022-08-06T23:32:09.370Z,97955.53
2022-08-06T23:35:07.702Z,97945.91
2022-08-06T23:38:02.878Z,97944.50
2022-08-06T23:40:59.941Z,97947.28
2022-08-06T23:43:45.951Z,97948.78
2022-08-06T23:46:35.837Z,97950.88
2022-08-06T23:49:22.325Z,97951.91
2022-08-06T23:52:23.445Z,97949.72
2022-08-06T23:55:11.694Z,97955.72
2022-08-06T23:58:02.808Z,97957.00
